sensor_id;sensor_type;location;lat;lon;timestamp;P1;durP1;ratioP1;P2;durP2;ratioP2
58878;SDS011;44660;42.664;23.266;2023-03-13T00:01:39;13.60;;;6.85;;
58878;SDS011;44660;42.664;23.266;2023-03-13T00:04:07;17.90;;;7.45;;
58878;SDS011;44660;42.664;23.266;2023-03-13T00:06:36;20.00;;;8.25;;
58878;SDS011;44660;42.664;23.266;2023-03-13T00:11:29;20.63;;;8.13;;
58878;SDS011;44660;42.664;23.266;2023-03-13T00:13:56;12.93;;;6.15;;
58878;SDS011;44660;42.664;23.266;2023-03-13T00:16:23;15.18;;;6.30;;
58878;SDS011;44660;42.664;23.266;2023-03-13T00:18:50;11.20;;;5.05;;
58878;SDS011;44660;42.664;23.266;2023-03-13T00:21:18;11.60;;;4.65;;
58878;SDS011;44660;42.664;23.266;2023-03-13T00:23:44;11.40;;;5.68;;
58878;SDS011;44660;42.664;23.266;2023-03-13T00:26:11;10.10;;;5.38;;
58878;SDS011;44660;42.664;23.266;2023-03-13T00:28:38;11.43;;;5.63;;
58878;SDS011;44660;42.664;23.266;2023-03-13T00:31:08;10.57;;;4.82;;
58878;SDS011;44660;42.664;23.266;2023-03-13T00:33:35;11.60;;;5.55;;
58878;SDS011;44660;42.664;23.266;2023-03-13T00:36:06;11.70;;;5.43;;
58878;SDS011;44660;42.664;23.266;2023-03-13T00:38:33;10.57;;;5.28;;
58878;SDS011;44660;42.664;23.266;2023-03-13T00:41:03;10.23;;;5.30;;
58878;SDS011;44660;42.664;23.266;2023-03-13T00:43:36;8.80;;;5.22;;
58878;SDS011;44660;42.664;23.266;2023-03-13T00:46:02;10.70;;;5.00;;
58878;SDS011;44660;42.664;23.266;2023-03-13T00:48:28;8.27;;;4.60;;
58878;SDS011;44660;42.664;23.266;2023-03-13T00:50:54;12.90;;;5.20;;
58878;SDS011;44660;42.664;23.266;2023-03-13T00:53:20;12.50;;;5.32;;
58878;SDS011;44660;42.664;23.266;2023-03-13T00:58:25;9.75;;;5.28;;
58878;SDS011;44660;42.664;23.266;2023-03-13T01:00:52;14.60;;;6.00;;
58878;SDS011;44660;42.664;23.266;2023-03-13T01:03:19;15.85;;;5.82;;
58878;SDS011;44660;42.664;23.266;2023-03-13T01:05:54;15.85;;;6.32;;
58878;SDS011;44660;42.664;23.266;2023-03-13T01:08:20;16.80;;;6.85;;
58878;SDS011;44660;42.664;23.266;2023-03-13T01:10:45;13.20;;;5.47;;
58878;SDS011;44660;42.664;23.266;2023-03-13T01:13:11;10.88;;;5.32;;
58878;SDS011;44660;42.664;23.266;2023-03-13T01:15:37;12.60;;;5.43;;
58878;SDS011;44660;42.664;23.266;2023-03-13T01:18:02;6.97;;;4.47;;
58878;SDS011;44660;42.664;23.266;2023-03-13T01:20:28;9.82;;;4.40;;
58878;SDS011;44660;42.664;23.266;2023-03-13T01:22:54;7.80;;;4.93;;
58878;SDS011;44660;42.664;23.266;2023-03-13T01:25:20;9.05;;;4.90;;
58878;SDS011;44660;42.664;23.266;2023-03-13T01:27:45;8.32;;;4.65;;
58878;SDS011;44660;42.664;23.266;2023-03-13T01:30:11;7.53;;;4.47;;
58878;SDS011;44660;42.664;23.266;2023-03-13T01:32:37;7.90;;;4.47;;
58878;SDS011;44660;42.664;23.266;2023-03-13T01:35:02;7.22;;;4.22;;
58878;SDS011;44660;42.664;23.266;2023-03-13T01:37:28;7.57;;;4.43;;
58878;SDS011;44660;42.664;23.266;2023-03-13T01:39:53;7.47;;;4.47;;
58878;SDS011;44660;42.664;23.266;2023-03-13T01:42:19;9.07;;;4.22;;
58878;SDS011;44660;42.664;23.266;2023-03-13T01:44:52;8.88;;;4.40;;
58878;SDS011;44660;42.664;23.266;2023-03-13T01:47:20;8.10;;;4.45;;
58878;SDS011;44660;42.664;23.266;2023-03-13T01:49:46;7.55;;;4.47;;
58878;SDS011;44660;42.664;23.266;2023-03-13T01:52:16;7.75;;;4.53;;
58878;SDS011;44660;42.664;23.266;2023-03-13T01:57:23;14.43;;;6.82;;
58878;SDS011;44660;42.664;23.266;2023-03-13T01:59:58;11.30;;;5.57;;
58878;SDS011;44660;42.664;23.266;2023-03-13T02:02:27;10.55;;;4.88;;
58878;SDS011;44660;42.664;23.266;2023-03-13T02:04:57;9.43;;;4.38;;
58878;SDS011;44660;42.664;23.266;2023-03-13T02:07:27;8.75;;;5.00;;
58878;SDS011;44660;42.664;23.266;2023-03-13T02:09:58;11.65;;;5.80;;
58878;SDS011;44660;42.664;23.266;2023-03-13T02:12:26;11.85;;;6.45;;
58878;SDS011;44660;42.664;23.266;2023-03-13T02:14:56;10.35;;;5.82;;
58878;SDS011;44660;42.664;23.266;2023-03-13T02:17:24;10.32;;;5.63;;
58878;SDS011;44660;42.664;23.266;2023-03-13T02:19:50;8.38;;;4.93;;
58878;SDS011;44660;42.664;23.266;2023-03-13T02:28:10;7.47;;;4.47;;
58878;SDS011;44660;42.664;23.266;2023-03-13T02:30:36;9.10;;;4.53;;
58878;SDS011;44660;42.664;23.266;2023-03-13T02:33:03;8.68;;;5.30;;
58878;SDS011;44660;42.664;23.266;2023-03-13T02:35:30;7.65;;;4.90;;
58878;SDS011;44660;42.664;23.266;2023-03-13T02:37:58;8.10;;;4.50;;
58878;SDS011;44660;42.664;23.266;2023-03-13T02:40:27;8.52;;;4.68;;
58878;SDS011;44660;42.664;23.266;2023-03-13T02:42:57;8.40;;;4.72;;
58878;SDS011;44660;42.664;23.266;2023-03-13T02:45:25;10.65;;;4.75;;
58878;SDS011;44660;42.664;23.266;2023-03-13T02:47:50;9.73;;;5.07;;
58878;SDS011;44660;42.664;23.266;2023-03-13T02:50:16;11.07;;;5.50;;
58878;SDS011;44660;42.664;23.266;2023-03-13T02:52:42;10.10;;;5.65;;
58878;SDS011;44660;42.664;23.266;2023-03-13T02:57:47;10.82;;;6.28;;
58878;SDS011;44660;42.664;23.266;2023-03-13T03:00:13;10.75;;;5.43;;
58878;SDS011;44660;42.664;23.266;2023-03-13T03:02:41;12.02;;;5.63;;
58878;SDS011;44660;42.664;23.266;2023-03-13T03:05:07;10.32;;;5.65;;
58878;SDS011;44660;42.664;23.266;2023-03-13T03:07:33;13.32;;;5.57;;
58878;SDS011;44660;42.664;23.266;2023-03-13T03:09:59;13.52;;;5.88;;
58878;SDS011;44660;42.664;23.266;2023-03-13T03:12:24;12.30;;;6.30;;
58878;SDS011;44660;42.664;23.266;2023-03-13T03:14:50;19.13;;;7.18;;
58878;SDS011;44660;42.664;23.266;2023-03-13T03:17:15;17.13;;;6.57;;
58878;SDS011;44660;42.664;23.266;2023-03-13T03:19:41;14.90;;;7.28;;
58878;SDS011;44660;42.664;23.266;2023-03-13T03:22:07;16.58;;;7.10;;
58878;SDS011;44660;42.664;23.266;2023-03-13T03:24:33;13.63;;;6.07;;
58878;SDS011;44660;42.664;23.266;2023-03-13T03:26:58;12.63;;;6.07;;
58878;SDS011;44660;42.664;23.266;2023-03-13T03:29:24;10.07;;;4.93;;
58878;SDS011;44660;42.664;23.266;2023-03-13T03:31:50;13.82;;;5.70;;
58878;SDS011;44660;42.664;23.266;2023-03-13T03:34:15;17.10;;;7.47;;
58878;SDS011;44660;42.664;23.266;2023-03-13T03:36:41;20.27;;;7.47;;
58878;SDS011;44660;42.664;23.266;2023-03-13T03:39:06;20.55;;;7.50;;
58878;SDS011;44660;42.664;23.266;2023-03-13T03:41:31;16.98;;;6.93;;
58878;SDS011;44660;42.664;23.266;2023-03-13T03:43:57;19.88;;;7.68;;
58878;SDS011;44660;42.664;23.266;2023-03-13T03:46:23;20.55;;;7.82;;
58878;SDS011;44660;42.664;23.266;2023-03-13T03:48:49;23.55;;;7.85;;
58878;SDS011;44660;42.664;23.266;2023-03-13T03:51:14;15.68;;;6.93;;
58878;SDS011;44660;42.664;23.266;2023-03-13T03:53:40;14.20;;;6.78;;
58878;SDS011;44660;42.664;23.266;2023-03-13T03:56:05;13.25;;;6.18;;
58878;SDS011;44660;42.664;23.266;2023-03-13T03:58:31;13.30;;;5.70;;
58878;SDS011;44660;42.664;23.266;2023-03-13T04:00:57;15.15;;;5.72;;
58878;SDS011;44660;42.664;23.266;2023-03-13T04:03:23;14.30;;;6.45;;
58878;SDS011;44660;42.664;23.266;2023-03-13T04:05:49;12.40;;;6.07;;
58878;SDS011;44660;42.664;23.266;2023-03-13T04:08:14;11.82;;;6.05;;
58878;SDS011;44660;42.664;23.266;2023-03-13T04:10:40;10.10;;;6.13;;
58878;SDS011;44660;42.664;23.266;2023-03-13T04:13:06;11.10;;;5.57;;
58878;SDS011;44660;42.664;23.266;2023-03-13T04:15:31;9.15;;;5.10;;
58878;SDS011;44660;42.664;23.266;2023-03-13T04:17:57;9.55;;;5.00;;
58878;SDS011;44660;42.664;23.266;2023-03-13T04:20:22;10.10;;;6.20;;
58878;SDS011;44660;42.664;23.266;2023-03-13T04:22:48;8.73;;;5.20;;
58878;SDS011;44660;42.664;23.266;2023-03-13T04:25:13;9.35;;;5.80;;
58878;SDS011;44660;42.664;23.266;2023-03-13T04:27:39;9.40;;;6.68;;
58878;SDS011;44660;42.664;23.266;2023-03-13T04:30:04;10.63;;;5.80;;
58878;SDS011;44660;42.664;23.266;2023-03-13T04:32:31;11.65;;;6.10;;
58878;SDS011;44660;42.664;23.266;2023-03-13T04:34:56;12.10;;;6.53;;
58878;SDS011;44660;42.664;23.266;2023-03-13T04:37:22;14.07;;;6.50;;
58878;SDS011;44660;42.664;23.266;2023-03-13T04:39:48;52.60;;;25.60;;
58878;SDS011;44660;42.664;23.266;2023-03-13T04:42:14;58.50;;;27.75;;
58878;SDS011;44660;42.664;23.266;2023-03-13T04:44:39;22.67;;;10.55;;
58878;SDS011;44660;42.664;23.266;2023-03-13T04:47:05;14.95;;;7.50;;
58878;SDS011;44660;42.664;23.266;2023-03-13T04:49:30;19.40;;;9.43;;
58878;SDS011;44660;42.664;23.266;2023-03-13T04:51:56;9.70;;;6.38;;
58878;SDS011;44660;42.664;23.266;2023-03-13T04:54:21;17.02;;;8.45;;
58878;SDS011;44660;42.664;23.266;2023-03-13T04:56:47;14.10;;;7.55;;
58878;SDS011;44660;42.664;23.266;2023-03-13T04:59:13;12.13;;;7.00;;
58878;SDS011;44660;42.664;23.266;2023-03-13T05:01:40;15.25;;;7.22;;
58878;SDS011;44660;42.664;23.266;2023-03-13T05:04:07;12.40;;;6.95;;
58878;SDS011;44660;42.664;23.266;2023-03-13T05:06:33;15.98;;;7.43;;
58878;SDS011;44660;42.664;23.266;2023-03-13T05:08:58;14.15;;;7.18;;
58878;SDS011;44660;42.664;23.266;2023-03-13T05:11:24;14.00;;;7.10;;
58878;SDS011;44660;42.664;23.266;2023-03-13T05:13:50;15.30;;;8.23;;
58878;SDS011;44660;42.664;23.266;2023-03-13T05:16:15;22.63;;;8.07;;
58878;SDS011;44660;42.664;23.266;2023-03-13T05:18:40;17.27;;;7.75;;
58878;SDS011;44660;42.664;23.266;2023-03-13T05:21:06;20.90;;;8.63;;
58878;SDS011;44660;42.664;23.266;2023-03-13T05:23:32;17.38;;;8.73;;
58878;SDS011;44660;42.664;23.266;2023-03-13T05:25:58;23.90;;;8.90;;
58878;SDS011;44660;42.664;23.266;2023-03-13T05:28:24;23.98;;;9.23;;
58878;SDS011;44660;42.664;23.266;2023-03-13T05:30:49;16.08;;;8.20;;
58878;SDS011;44660;42.664;23.266;2023-03-13T05:33:14;18.67;;;8.75;;
58878;SDS011;44660;42.664;23.266;2023-03-13T05:35:41;14.82;;;8.15;;
58878;SDS011;44660;42.664;23.266;2023-03-13T05:38:06;14.05;;;7.60;;
58878;SDS011;44660;42.664;23.266;2023-03-13T05:40:32;66.32;;;30.08;;
58878;SDS011;44660;42.664;23.266;2023-03-13T05:42:58;99.65;;;42.25;;
58878;SDS011;44660;42.664;23.266;2023-03-13T05:45:23;75.70;;;38.30;;
58878;SDS011;44660;42.664;23.266;2023-03-13T05:47:49;34.05;;;16.25;;
58878;SDS011;44660;42.664;23.266;2023-03-13T05:50:15;16.58;;;7.85;;
58878;SDS011;44660;42.664;23.266;2023-03-13T05:52:40;14.45;;;7.55;;
58878;SDS011;44660;42.664;23.266;2023-03-13T05:55:06;42.83;;;17.02;;
58878;SDS011;44660;42.664;23.266;2023-03-13T05:57:32;38.53;;;16.67;;
58878;SDS011;44660;42.664;23.266;2023-03-13T05:59:57;27.17;;;13.00;;
58878;SDS011;44660;42.664;23.266;2023-03-13T06:02:23;25.63;;;12.88;;
58878;SDS011;44660;42.664;23.266;2023-03-13T06:04:49;17.55;;;10.35;;
58878;SDS011;44660;42.664;23.266;2023-03-13T06:07:14;19.30;;;10.93;;
58878;SDS011;44660;42.664;23.266;2023-03-13T06:09:40;23.95;;;9.63;;
58878;SDS011;44660;42.664;23.266;2023-03-13T06:12:06;15.40;;;9.50;;
58878;SDS011;44660;42.664;23.266;2023-03-13T06:14:32;18.73;;;10.27;;
58878;SDS011;44660;42.664;23.266;2023-03-13T06:16:58;10.23;;;6.30;;
58878;SDS011;44660;42.664;23.266;2023-03-13T06:19:23;8.38;;;5.65;;
58878;SDS011;44660;42.664;23.266;2023-03-13T06:21:49;8.95;;;5.85;;
58878;SDS011;44660;42.664;23.266;2023-03-13T06:24:16;7.57;;;5.25;;
58878;SDS011;44660;42.664;23.266;2023-03-13T06:26:42;9.00;;;5.60;;
58878;SDS011;44660;42.664;23.266;2023-03-13T06:29:07;8.95;;;5.70;;
58878;SDS011;44660;42.664;23.266;2023-03-13T06:31:33;9.60;;;5.93;;
58878;SDS011;44660;42.664;23.266;2023-03-13T06:33:58;11.70;;;6.18;;
58878;SDS011;44660;42.664;23.266;2023-03-13T06:36:24;10.23;;;6.25;;
58878;SDS011;44660;42.664;23.266;2023-03-13T06:38:50;10.48;;;6.65;;
58878;SDS011;44660;42.664;23.266;2023-03-13T06:41:15;12.45;;;6.82;;
58878;SDS011;44660;42.664;23.266;2023-03-13T06:43:41;12.80;;;6.40;;
58878;SDS011;44660;42.664;23.266;2023-03-13T06:46:07;11.02;;;6.80;;
58878;SDS011;44660;42.664;23.266;2023-03-13T06:48:37;15.43;;;6.97;;
58878;SDS011;44660;42.664;23.266;2023-03-13T06:51:02;11.07;;;6.68;;
58878;SDS011;44660;42.664;23.266;2023-03-13T06:53:28;12.35;;;7.30;;
58878;SDS011;44660;42.664;23.266;2023-03-13T06:55:54;15.85;;;8.57;;
58878;SDS011;44660;42.664;23.266;2023-03-13T06:58:19;12.55;;;7.47;;
58878;SDS011;44660;42.664;23.266;2023-03-13T07:00:44;20.00;;;8.75;;
58878;SDS011;44660;42.664;23.266;2023-03-13T07:03:11;17.90;;;8.07;;
58878;SDS011;44660;42.664;23.266;2023-03-13T07:05:38;13.25;;;8.15;;
58878;SDS011;44660;42.664;23.266;2023-03-13T07:08:03;12.50;;;7.43;;
58878;SDS011;44660;42.664;23.266;2023-03-13T07:10:30;12.75;;;7.90;;
58878;SDS011;44660;42.664;23.266;2023-03-13T07:12:55;12.23;;;8.18;;
58878;SDS011;44660;42.664;23.266;2023-03-13T07:15:21;13.77;;;8.27;;
58878;SDS011;44660;42.664;23.266;2023-03-13T07:17:46;12.88;;;8.63;;
58878;SDS011;44660;42.664;23.266;2023-03-13T07:20:12;15.25;;;9.32;;
58878;SDS011;44660;42.664;23.266;2023-03-13T07:22:37;22.35;;;10.13;;
58878;SDS011;44660;42.664;23.266;2023-03-13T07:25:03;20.42;;;11.40;;
58878;SDS011;44660;42.664;23.266;2023-03-13T07:27:30;23.08;;;13.85;;
58878;SDS011;44660;42.664;23.266;2023-03-13T07:29:55;42.85;;;22.25;;
58878;SDS011;44660;42.664;23.266;2023-03-13T07:32:21;18.25;;;10.93;;
58878;SDS011;44660;42.664;23.266;2023-03-13T07:34:46;12.98;;;8.95;;
58878;SDS011;44660;42.664;23.266;2023-03-13T07:37:12;18.30;;;9.57;;
58878;SDS011;44660;42.664;23.266;2023-03-13T07:39:39;17.63;;;10.63;;
58878;SDS011;44660;42.664;23.266;2023-03-13T07:42:05;17.98;;;10.68;;
58878;SDS011;44660;42.664;23.266;2023-03-13T07:44:32;18.77;;;10.57;;
58878;SDS011;44660;42.664;23.266;2023-03-13T07:47:00;20.02;;;9.88;;
58878;SDS011;44660;42.664;23.266;2023-03-13T07:49:25;13.77;;;8.75;;
58878;SDS011;44660;42.664;23.266;2023-03-13T07:51:51;14.60;;;9.02;;
58878;SDS011;44660;42.664;23.266;2023-03-13T07:54:16;16.83;;;10.30;;
58878;SDS011;44660;42.664;23.266;2023-03-13T07:56:42;17.30;;;8.77;;
58878;SDS011;44660;42.664;23.266;2023-03-13T07:59:07;14.88;;;8.02;;
58878;SDS011;44660;42.664;23.266;2023-03-13T08:01:33;16.20;;;8.18;;
58878;SDS011;44660;42.664;23.266;2023-03-13T08:03:58;12.20;;;7.95;;
58878;SDS011;44660;42.664;23.266;2023-03-13T08:06:28;13.55;;;7.43;;
58878;SDS011;44660;42.664;23.266;2023-03-13T08:08:55;13.30;;;7.38;;
58878;SDS011;44660;42.664;23.266;2023-03-13T08:11:22;12.40;;;7.63;;
58878;SDS011;44660;42.664;23.266;2023-03-13T08:13:49;12.63;;;8.20;;
58878;SDS011;44660;42.664;23.266;2023-03-13T08:16:20;13.70;;;7.32;;
58878;SDS011;44660;42.664;23.266;2023-03-13T08:18:48;9.35;;;7.47;;
58878;SDS011;44660;42.664;23.266;2023-03-13T08:21:18;13.40;;;7.20;;
58878;SDS011;44660;42.664;23.266;2023-03-13T08:23:46;10.00;;;7.70;;
58878;SDS011;44660;42.664;23.266;2023-03-13T08:26:14;10.57;;;7.47;;
58878;SDS011;44660;42.664;23.266;2023-03-13T08:31:17;10.95;;;7.03;;
58878;SDS011;44660;42.664;23.266;2023-03-13T08:33:46;7.90;;;6.68;;
58878;SDS011;44660;42.664;23.266;2023-03-13T08:38:38;8.52;;;6.40;;
58878;SDS011;44660;42.664;23.266;2023-03-13T08:41:06;8.65;;;7.32;;
58878;SDS011;44660;42.664;23.266;2023-03-13T08:43:32;10.52;;;6.90;;
58878;SDS011;44660;42.664;23.266;2023-03-13T08:45:58;10.45;;;7.47;;
58878;SDS011;44660;42.664;23.266;2023-03-13T08:48:23;7.60;;;6.90;;
58878;SDS011;44660;42.664;23.266;2023-03-13T08:53:44;8.70;;;7.78;;
58878;SDS011;44660;42.664;23.266;2023-03-13T08:56:12;11.38;;;7.60;;
58878;SDS011;44660;42.664;23.266;2023-03-13T08:58:39;13.35;;;7.80;;
58878;SDS011;44660;42.664;23.266;2023-03-13T09:01:08;10.50;;;7.82;;
58878;SDS011;44660;42.664;23.266;2023-03-13T09:03:36;9.43;;;7.60;;
58878;SDS011;44660;42.664;23.266;2023-03-13T09:06:02;8.27;;;7.47;;
58878;SDS011;44660;42.664;23.266;2023-03-13T09:08:31;10.43;;;7.82;;
58878;SDS011;44660;42.664;23.266;2023-03-13T09:11:01;10.05;;;7.47;;
58878;SDS011;44660;42.664;23.266;2023-03-13T09:13:34;9.95;;;7.88;;
58878;SDS011;44660;42.664;23.266;2023-03-13T09:16:12;11.60;;;8.20;;
58878;SDS011;44660;42.664;23.266;2023-03-13T09:18:39;10.55;;;9.25;;
58878;SDS011;44660;42.664;23.266;2023-03-13T09:21:09;13.18;;;8.07;;
58878;SDS011;44660;42.664;23.266;2023-03-13T09:23:37;10.90;;;8.38;;
58878;SDS011;44660;42.664;23.266;2023-03-13T09:26:03;8.60;;;7.70;;
58878;SDS011;44660;42.664;23.266;2023-03-13T09:28:28;12.00;;;8.20;;
58878;SDS011;44660;42.664;23.266;2023-03-13T09:30:54;10.13;;;7.85;;
58878;SDS011;44660;42.664;23.266;2023-03-13T09:33:20;9.80;;;8.55;;
58878;SDS011;44660;42.664;23.266;2023-03-13T09:35:50;10.27;;;9.23;;
58878;SDS011;44660;42.664;23.266;2023-03-13T09:38:16;22.40;;;20.20;;
58878;SDS011;44660;42.664;23.266;2023-03-13T09:40:51;18.08;;;16.27;;
58878;SDS011;44660;42.664;23.266;2023-03-13T09:43:33;12.93;;;9.30;;
58878;SDS011;44660;42.664;23.266;2023-03-13T09:46:12;10.73;;;7.68;;
58878;SDS011;44660;42.664;23.266;2023-03-13T09:48:56;9.35;;;8.20;;
58878;SDS011;44660;42.664;23.266;2023-03-13T09:51:28;13.18;;;7.90;;
58878;SDS011;44660;42.664;23.266;2023-03-13T09:56:49;11.02;;;8.60;;
58878;SDS011;44660;42.664;23.266;2023-03-13T09:59:31;9.45;;;8.35;;
58878;SDS011;44660;42.664;23.266;2023-03-13T10:02:27;11.18;;;8.60;;
58878;SDS011;44660;42.664;23.266;2023-03-13T10:05:02;9.30;;;8.40;;
58878;SDS011;44660;42.664;23.266;2023-03-13T10:07:31;13.05;;;8.93;;
58878;SDS011;44660;42.664;23.266;2023-03-13T10:09:58;12.35;;;8.40;;
58878;SDS011;44660;42.664;23.266;2023-03-13T10:12:29;11.13;;;8.85;;
58878;SDS011;44660;42.664;23.266;2023-03-13T10:17:54;10.90;;;8.80;;
58878;SDS011;44660;42.664;23.266;2023-03-13T10:22:53;10.13;;;8.52;;
58878;SDS011;44660;42.664;23.266;2023-03-13T10:25:28;11.82;;;8.73;;
58878;SDS011;44660;42.664;23.266;2023-03-13T10:27:57;12.18;;;8.40;;
58878;SDS011;44660;42.664;23.266;2023-03-13T10:30:29;11.60;;;9.55;;
58878;SDS011;44660;42.664;23.266;2023-03-13T10:33:00;14.43;;;9.35;;
58878;SDS011;44660;42.664;23.266;2023-03-13T10:35:43;11.27;;;8.85;;
58878;SDS011;44660;42.664;23.266;2023-03-13T10:38:10;11.00;;;9.88;;
58878;SDS011;44660;42.664;23.266;2023-03-13T10:40:36;19.67;;;11.43;;
58878;SDS011;44660;42.664;23.266;2023-03-13T10:43:03;13.20;;;10.32;;
58878;SDS011;44660;42.664;23.266;2023-03-13T10:45:31;12.50;;;9.85;;
58878;SDS011;44660;42.664;23.266;2023-03-13T10:48:02;12.52;;;10.25;;
58878;SDS011;44660;42.664;23.266;2023-03-13T10:50:37;15.23;;;11.38;;
58878;SDS011;44660;42.664;23.266;2023-03-13T10:53:19;15.82;;;10.57;;
58878;SDS011;44660;42.664;23.266;2023-03-13T10:55:47;14.02;;;10.32;;
58878;SDS011;44660;42.664;23.266;2023-03-13T10:58:25;15.57;;;10.70;;
58878;SDS011;44660;42.664;23.266;2023-03-13T11:03:59;16.92;;;10.60;;
58878;SDS011;44660;42.664;23.266;2023-03-13T11:06:56;17.10;;;11.18;;
58878;SDS011;44660;42.664;23.266;2023-03-13T11:09:26;19.08;;;11.48;;
58878;SDS011;44660;42.664;23.266;2023-03-13T11:11:53;16.80;;;11.40;;
58878;SDS011;44660;42.664;23.266;2023-03-13T11:14:39;18.50;;;12.10;;
58878;SDS011;44660;42.664;23.266;2023-03-13T11:22:43;14.55;;;11.07;;
58878;SDS011;44660;42.664;23.266;2023-03-13T11:25:21;16.67;;;12.10;;
58878;SDS011;44660;42.664;23.266;2023-03-13T11:27:50;18.25;;;12.23;;
58878;SDS011;44660;42.664;23.266;2023-03-13T11:33:00;16.05;;;11.88;;
58878;SDS011;44660;42.664;23.266;2023-03-13T11:35:38;18.05;;;11.80;;
58878;SDS011;44660;42.664;23.266;2023-03-13T11:46:24;21.55;;;11.88;;
58878;SDS011;44660;42.664;23.266;2023-03-13T11:48:58;16.13;;;11.70;;
58878;SDS011;44660;42.664;23.266;2023-03-13T11:57:12;14.00;;;10.70;;
58878;SDS011;44660;42.664;23.266;2023-03-13T12:02:58;17.97;;;11.77;;
58878;SDS011;44660;42.664;23.266;2023-03-13T12:05:55;16.40;;;11.35;;
58878;SDS011;44660;42.664;23.266;2023-03-13T12:08:27;19.27;;;11.93;;
58878;SDS011;44660;42.664;23.266;2023-03-13T12:11:11;18.20;;;11.45;;
58878;SDS011;44660;42.664;23.266;2023-03-13T12:13:43;18.25;;;11.32;;
58878;SDS011;44660;42.664;23.266;2023-03-13T12:19:02;17.23;;;11.20;;
58878;SDS011;44660;42.664;23.266;2023-03-13T12:21:34;24.17;;;11.50;;
58878;SDS011;44660;42.664;23.266;2023-03-13T12:26:54;15.45;;;11.65;;
58878;SDS011;44660;42.664;23.266;2023-03-13T12:32:03;14.70;;;12.35;;
58878;SDS011;44660;42.664;23.266;2023-03-13T12:34:38;18.92;;;12.20;;
58878;SDS011;44660;42.664;23.266;2023-03-13T12:37:20;20.42;;;12.82;;
58878;SDS011;44660;42.664;23.266;2023-03-13T12:39:56;17.98;;;12.93;;
58878;SDS011;44660;42.664;23.266;2023-03-13T12:42:44;16.33;;;11.63;;
58878;SDS011;44660;42.664;23.266;2023-03-13T12:45:18;19.15;;;12.15;;
58878;SDS011;44660;42.664;23.266;2023-03-13T12:57:05;18.35;;;11.63;;
58878;SDS011;44660;42.664;23.266;2023-03-13T12:59:37;16.17;;;11.80;;
58878;SDS011;44660;42.664;23.266;2023-03-13T13:02:16;19.63;;;11.73;;
58878;SDS011;44660;42.664;23.266;2023-03-13T13:04:47;19.00;;;11.52;;
58878;SDS011;44660;42.664;23.266;2023-03-13T13:10:04;17.58;;;11.45;;
58878;SDS011;44660;42.664;23.266;2023-03-13T13:15:26;15.48;;;10.32;;
58878;SDS011;44660;42.664;23.266;2023-03-13T13:17:55;16.45;;;10.90;;
58878;SDS011;44660;42.664;23.266;2023-03-13T13:20:30;16.80;;;11.38;;
58878;SDS011;44660;42.664;23.266;2023-03-13T13:22:56;17.63;;;11.40;;
58878;SDS011;44660;42.664;23.266;2023-03-13T13:25:40;13.77;;;11.05;;
58878;SDS011;44660;42.664;23.266;2023-03-13T13:30:48;18.23;;;12.00;;
58878;SDS011;44660;42.664;23.266;2023-03-13T13:38:36;15.40;;;11.90;;
58878;SDS011;44660;42.664;23.266;2023-03-13T13:43:48;18.05;;;11.93;;
58878;SDS011;44660;42.664;23.266;2023-03-13T13:46:34;22.80;;;14.73;;
58878;SDS011;44660;42.664;23.266;2023-03-13T13:51:37;16.63;;;11.43;;
58878;SDS011;44660;42.664;23.266;2023-03-13T13:54:27;13.60;;;11.13;;
58878;SDS011;44660;42.664;23.266;2023-03-13T13:59:43;19.52;;;11.77;;
58878;SDS011;44660;42.664;23.266;2023-03-13T14:02:15;16.83;;;10.55;;
58878;SDS011;44660;42.664;23.266;2023-03-13T14:13:09;16.88;;;10.65;;
58878;SDS011;44660;42.664;23.266;2023-03-13T14:15:39;15.02;;;10.68;;
58878;SDS011;44660;42.664;23.266;2023-03-13T14:20:52;17.70;;;11.45;;
58878;SDS011;44660;42.664;23.266;2023-03-13T14:25:57;19.83;;;10.70;;
58878;SDS011;44660;42.664;23.266;2023-03-13T14:28:23;16.92;;;11.02;;
58878;SDS011;44660;42.664;23.266;2023-03-13T14:30:51;16.35;;;11.05;;
58878;SDS011;44660;42.664;23.266;2023-03-13T14:33:18;13.82;;;10.65;;
58878;SDS011;44660;42.664;23.266;2023-03-13T14:35:45;19.75;;;11.10;;
58878;SDS011;44660;42.664;23.266;2023-03-13T14:38:18;18.98;;;10.93;;
58878;SDS011;44660;42.664;23.266;2023-03-13T14:40:48;18.63;;;10.95;;
58878;SDS011;44660;42.664;23.266;2023-03-13T14:43:19;19.55;;;10.68;;
58878;SDS011;44660;42.664;23.266;2023-03-13T14:45:52;15.65;;;11.02;;
58878;SDS011;44660;42.664;23.266;2023-03-13T14:51:07;14.95;;;10.32;;
58878;SDS011;44660;42.664;23.266;2023-03-13T14:53:34;25.27;;;13.82;;
58878;SDS011;44660;42.664;23.266;2023-03-13T14:56:16;41.70;;;19.23;;
58878;SDS011;44660;42.664;23.266;2023-03-13T14:58:43;18.45;;;10.95;;
58878;SDS011;44660;42.664;23.266;2023-03-13T15:01:11;21.83;;;11.32;;
58878;SDS011;44660;42.664;23.266;2023-03-13T15:03:42;24.10;;;13.88;;
58878;SDS011;44660;42.664;23.266;2023-03-13T15:08:37;17.00;;;9.60;;
58878;SDS011;44660;42.664;23.266;2023-03-13T15:11:17;17.73;;;10.35;;
58878;SDS011;44660;42.664;23.266;2023-03-13T15:13:51;15.57;;;9.35;;
58878;SDS011;44660;42.664;23.266;2023-03-13T15:16:18;14.05;;;9.75;;
58878;SDS011;44660;42.664;23.266;2023-03-13T15:18:46;15.82;;;9.45;;
58878;SDS011;44660;42.664;23.266;2023-03-13T15:23:38;17.73;;;10.57;;
58878;SDS011;44660;42.664;23.266;2023-03-13T15:26:04;15.07;;;10.38;;
58878;SDS011;44660;42.664;23.266;2023-03-13T15:28:30;16.88;;;10.88;;
58878;SDS011;44660;42.664;23.266;2023-03-13T15:30:56;18.48;;;11.23;;
58878;SDS011;44660;42.664;23.266;2023-03-13T15:33:22;15.40;;;10.93;;
58878;SDS011;44660;42.664;23.266;2023-03-13T15:35:51;19.40;;;10.77;;
58878;SDS011;44660;42.664;23.266;2023-03-13T15:38:24;17.75;;;10.90;;
58878;SDS011;44660;42.664;23.266;2023-03-13T15:40:51;14.30;;;10.35;;
58878;SDS011;44660;42.664;23.266;2023-03-13T15:43:17;24.63;;;10.82;;
58878;SDS011;44660;42.664;23.266;2023-03-13T15:45:44;32.33;;;12.35;;
58878;SDS011;44660;42.664;23.266;2023-03-13T15:48:18;31.15;;;13.98;;
58878;SDS011;44660;42.664;23.266;2023-03-13T15:50:55;38.45;;;15.15;;
58878;SDS011;44660;42.664;23.266;2023-03-13T15:55:49;26.42;;;12.52;;
58878;SDS011;44660;42.664;23.266;2023-03-13T15:58:17;33.88;;;11.32;;
58878;SDS011;44660;42.664;23.266;2023-03-13T16:00:43;22.55;;;13.32;;
58878;SDS011;44660;42.664;23.266;2023-03-13T16:03:23;27.25;;;14.82;;
58878;SDS011;44660;42.664;23.266;2023-03-13T16:05:50;29.55;;;15.82;;
58878;SDS011;44660;42.664;23.266;2023-03-13T16:08:20;30.20;;;16.83;;
58878;SDS011;44660;42.664;23.266;2023-03-13T16:10:50;35.03;;;18.17;;
58878;SDS011;44660;42.664;23.266;2023-03-13T16:13:16;29.08;;;16.63;;
58878;SDS011;44660;42.664;23.266;2023-03-13T16:15:42;29.83;;;16.73;;
58878;SDS011;44660;42.664;23.266;2023-03-13T16:18:12;26.85;;;16.25;;
58878;SDS011;44660;42.664;23.266;2023-03-13T16:20:42;31.48;;;15.90;;
58878;SDS011;44660;42.664;23.266;2023-03-13T16:23:08;28.40;;;16.42;;
58878;SDS011;44660;42.664;23.266;2023-03-13T16:25:33;28.70;;;17.23;;
58878;SDS011;44660;42.664;23.266;2023-03-13T16:27:59;38.38;;;20.08;;
58878;SDS011;44660;42.664;23.266;2023-03-13T16:30:25;29.10;;;18.40;;